Forecasts are only available for sites displaying the forecast symbol.

Some water levels are actually in metres AHD (Australian Height Datum), click individual sites for more details.

Scroll for more >

River gauges, storages, and weirs in the Murray–Darling Basin

Type Locationsort descending River Water level Flow Volume Release Water temp Salinity Rainfall
River Gauge Albury (Union Bridge) Murray 1.46 m 26/02/2020 20:00 Not measured Not measured Not measured 23.5°C 26/02/2020 20:00 49.5 μS/cm 26/02/2020 20:00 Not measured Full data
River Gauge Balranald Murrumbidgee 1.84 m 26/02/2020 19:45 1417 ML/Day 26/02/2020 19:45 Not measured Not measured 25.3°C 26/02/2020 19:45 94.3 μS/cm 26/02/2020 19:45 Not measured Full data
River Gauge Bandiana Kiewa 0.85 m 26/02/2020 19:45 312 ML/Day 26/02/2020 19:45 Not measured Not measured 24.0°C 26/02/2020 19:45 29.3 μS/cm 26/02/2020 19:45 Not measured Full data
River Gauge Barmah Choke Murray 2.07 m 26/02/2020 19:45 5480 ML/Day 26/02/2020 19:45 Not measured Not measured Not measured Not measured Not measured Full data
River Gauge Biggara Murray 0.34 m 26/02/2020 20:00 313 ML/Day 26/02/2020 20:00 Not measured Not measured 20.6°C 26/02/2020 20:00 655.3 μS/cm 26/02/2020 20:00 4.2 mm 26/02/2020 9:00 Full data
River Gauge Bringenbrong Bridge Murray 1.26 m 26/02/2020 20:00 2359 ML/Day 26/02/2020 20:00 Not measured Not measured Not measured Not measured Not measured Full data
River Gauge Burtundy Darling 0.49 m 26/02/2020 7:45 0 ML/Day 26/02/2020 7:45 Not measured Not measured 31.9°C 4/02/2020 12:15 1157.8 μS/cm 3/09/2019 14:45 Not measured Full data
River Gauge Colemans Mitta 1.81 m 26/02/2020 8:45 2461 ML/Day 26/02/2020 8:45 Not measured Not measured 15.8°C 21/02/2020 15:45 47.1 μS/cm 21/02/2020 15:45 Not measured Full data
River Gauge Colignan Murray 2.13 m 26/02/2020 19:45 8180 ML/Day 26/02/2020 19:45 Not measured Not measured 25.7°C 26/02/2020 19:45 81.7 μS/cm 26/02/2020 19:45 Not measured Full data
River Gauge Corowa Murray 1.82 m 26/02/2020 20:00 7123 ML/Day 26/02/2020 20:00 Not measured Not measured 24.9°C 26/02/2020 20:00 54.2 μS/cm 26/02/2020 20:00 Not measured Full data
Storage Dartmouth Dam Mitta 447.3 m 26/02/2020 8:45 Not measured 1801 GL 26/02/2020 8:45 Not measured Not measured Not measured Not measured Full data
River Gauge Doctors Point Murray 2.44 m 26/02/2020 20:00 8664 ML/Day 26/02/2020 20:00 Not measured Not measured 23.4°C 26/02/2020 20:00 52.7 μS/cm 26/02/2020 20:00 Not measured Full data
River Gauge Echuca Wharf Murray 86.97 m 13/02/2020 8:45 Not measured Not measured Not measured Not measured Not measured Not measured Full data
River Gauge Edward Escape Wakool 0.01 m 26/02/2020 19:45 3 ML/Day 26/02/2020 19:45 Not measured Not measured 23.8°C 26/02/2020 19:45 66.2 μS/cm 26/02/2020 19:45 Not measured Full data
River Gauge Edward River Offtake Murray 2.37 m 26/02/2020 19:45 1514 ML/Day 26/02/2020 19:45 Not measured Not measured 25.6°C 26/02/2020 19:45 49.0 μS/cm 26/02/2020 19:45 Not measured Full data
Weirs Euston Weir Downstream Murray 43.51 m 26/02/2020 19:45 9327 ML/Day 26/02/2020 19:45 Not measured Not measured 24.7°C 26/02/2020 19:45 72.1 μS/cm 26/02/2020 19:45 Not measured Full data
Weirs Euston Weir Upstream Murray 47.63 m 26/02/2020 7:45 Not measured 37 GL 26/02/2020 7:45 Not measured Not measured Not measured 0.0 mm 21/02/2019 9:00 Full data
River Gauge Flow to South Australia Murray Not measured Not measured Not measured 6062.7 ML/d26/02/2020 7:45 Not measured Not measured Not measured Full data
River Gauge Frenchman Creek Murray 27.34 m 26/02/2020 7:45 Not measured Not measured 698.0 ML/d26/02/2020 7:45 Not measured Not measured Not measured Full data
River Gauge Gulpa Creek Offtake Murray 2.16 m 26/02/2020 19:45 190 ML/Day 26/02/2020 19:45 Not measured Not measured Not measured Not measured Not measured Full data
River Gauge Hinnomunjie Mitta 0.46 m 26/02/2020 18:45 142 ML/Day 26/02/2020 18:45 Not measured Not measured 22.2°C 26/02/2020 18:45 522.8 μS/cm 26/02/2020 18:45 1.6 mm 26/02/2020 9:00 Full data
Storage Hume Dam Murray 173.59 m 26/02/2020 20:00 Not measured 505 GL 26/02/2020 20:00 6364.0 ML/d26/02/2020 8:00 Not measured Not measured 0.0 mm 26/02/2020 9:00 Full data
River Gauge Jingellic Murray 1.6 m 26/02/2020 19:45 3869 ML/Day 26/02/2020 19:45 Not measured Not measured 23.3°C 26/02/2020 19:45 46.5 μS/cm 26/02/2020 19:45 0.4 mm 26/02/2020 9:00 Full data
River Gauge Kerang Loddon 0.43 m 26/02/2020 19:45 298 ML/Day 26/02/2020 19:45 Not measured Not measured 23.7°C 26/02/2020 19:45 86.8 μS/cm 26/02/2020 19:45 Not measured Full data
River Gauge Lake Albert Murray 0.56 m 26/02/2020 5:45 Not measured 238 GL 26/02/2020 5:45 Not measured Not measured Not measured Not measured Full data
River Gauge Lake Alexandrina Murray 0.44 m 26/02/2020 5:45 Not measured 1411 GL 26/02/2020 5:45 Not measured Not measured 921.2 μS/cm 26/02/2020 18:45 Not measured Full data
Storage Lake Victoria Murray 23.19 m 26/02/2020 18:45 Not measured 265 GL 26/02/2020 18:45 Not measured 22.7°C 26/02/2020 18:45 145.7 μS/cm 26/02/2020 18:45 Not measured Full data
Weirs Lock 1 Downstream Murray 0.72 m 26/02/2020 18:45 Not measured Not measured 2913.2 ML/d26/02/2020 7:45 Not measured Not measured Not measured Full data
Weirs Lock 1 Upstream Murray 3.27 m 26/02/2020 18:45 Not measured Not measured Not measured 23.5°C 26/02/2020 18:45 207.4 μS/cm 26/02/2020 18:45 Not measured Full data
Weirs Lock 2 Downstream Murray 3.36 m 26/02/2020 18:45 Not measured Not measured Not measured Not measured Not measured Not measured Full data
Weirs Lock 2 Upstream Murray 6.19 m 26/02/2020 18:45 Not measured Not measured Not measured 24.2°C 26/02/2020 18:45 203.6 μS/cm 26/02/2020 18:45 Not measured Full data
Weirs Lock 3 Downstream Murray 6.32 m 26/02/2020 18:45 Not measured Not measured Not measured Not measured Not measured Not measured Full data
Weirs Lock 3 Upstream Murray 9.86 m 26/02/2020 18:45 Not measured Not measured Not measured Not measured Not measured Not measured Full data
Weirs Lock 4 Downstream Murray 10.34 m 26/02/2020 18:45 Not measured Not measured Not measured Not measured Not measured Not measured Full data
Weirs Lock 4 Upstream Murray 13.25 m 26/02/2020 18:45 Not measured Not measured Not measured Not measured Not measured Not measured Full data
Weirs Lock 5 Downstream Murray 13.4 m 26/02/2020 18:45 Not measured Not measured Not measured Not measured Not measured Not measured Full data
Weirs Lock 5 Upstream Murray 16.33 m 26/02/2020 18:45 Not measured Not measured Not measured 24.4°C 26/02/2020 18:45 126.2 μS/cm 26/02/2020 18:45 Not measured Full data
Weirs Lock 6 Downstream Murray 16.37 m 26/02/2020 18:45 Not measured Not measured Not measured Not measured Not measured Not measured Full data
Weirs Lock 6 Upstream Murray 19.28 m 26/02/2020 18:45 Not measured Not measured Not measured 24.4°C 26/02/2020 18:45 120.8 μS/cm 26/02/2020 18:45 Not measured Full data
Weirs Lock 7 Downstream Murray 20.31 m 26/02/2020 18:45 Not measured Not measured Not measured Not measured Not measured Not measured Full data
Weirs Lock 7 Upstream Murray 21.55 m 26/02/2020 7:45 Not measured Not measured Not measured 25.2°C 26/02/2020 18:45 95.2 μS/cm 26/02/2020 18:45 Not measured Full data
Weirs Lock 8 Upstream Murray 23.62 m 26/02/2020 7:45 Not measured Not measured Not measured 25.2°C 26/02/2020 18:45 105.8 μS/cm 26/02/2020 18:45 Not measured Full data
Weirs Lock 9 Downstream Murray 23.78 m 26/02/2020 18:45 Not measured Not measured Not measured Not measured Not measured Not measured Full data
Weirs Lock 9 Upstream Murray 27.34 m 26/02/2020 18:45 Not measured Not measured Not measured 25.3°C 26/02/2020 18:45 94.7 μS/cm 26/02/2020 18:45 Not measured Full data
River Gauge McCoy Bridge Goulburn 1.53 m 26/02/2020 19:45 1055 ML/Day 26/02/2020 19:45 Not measured Not measured 24.3°C 26/02/2020 19:45 51.2 μS/cm 26/02/2020 19:45 Not measured Full data
Storage Menindee Lakes Darling Not measured Not measured 6 GL 26/02/2020 7:45 Not measured Not measured Not measured Not measured Full data
Weirs Mildura Weir downstream Murray 31.02 m 26/02/2020 19:45 Not measured Not measured Not measured 23.7°C 26/02/2020 19:45 96.9 μS/cm 26/02/2020 19:45 Not measured Full data
River Gauge Morgan Downstream Murray Not measured Not measured Not measured 2242.2 ML/d26/02/2020 18:45 Not measured 213.5 μS/cm 26/02/2020 18:45 Not measured Full data
River Gauge Mulwala Canal Murray Not measured Not measured Not measured 405.8 ML/d26/02/2020 8:45 Not measured Not measured Not measured Full data
River Gauge Mundoo Barrage Murray 0.41 m 26/02/2020 7:45 Not measured Not measured Not measured Not measured Not measured Not measured Full data
River Gauge Murray Bridge Murray 0.59 m 26/02/2020 18:45 Not measured Not measured Not measured 22.3°C 26/02/2020 18:45 267.2 μS/cm 26/02/2020 18:45 Not measured Full data
River Gauge Peechelba Ovens 126.03 m 26/02/2020 19:45 111 ML/Day 26/02/2020 19:45 Not measured Not measured 23.9°C 26/02/2020 19:45 71.7 μS/cm 26/02/2020 19:45 Not measured Full data
River Gauge Pinegrove Murray 0.95 m 26/02/2020 20:00 132 ML/Day 26/02/2020 20:00 Not measured Not measured 23.0°C 26/02/2020 20:00 175.5 μS/cm 26/02/2020 20:00 0.8 mm 26/02/2020 9:00 Full data
River Gauge Redcliffs Murray Not measured Not measured Not measured Not measured Not measured 43.6 μS/cm 22/10/2019 13:45 Not measured Full data
River Gauge Rochester Campaspe 1.76 m 26/02/2020 19:45 114 ML/Day 26/02/2020 19:45 Not measured Not measured 21.7°C 26/02/2020 19:45 710.8 μS/cm 26/02/2020 19:45 0.0 mm 26/02/2020 9:00 Full data
River Gauge Rufus River Murray 20.39 m 26/02/2020 7:45 Not measured Not measured 1345.0 ML/d26/02/2020 7:45 Not measured 186.5 μS/cm 8/02/2020 13:00 Not measured Full data
Weirs Steven's Weir Downstream Edward 1.41 m 26/02/2020 19:45 1170 ML/Day 26/02/2020 19:45 Not measured Not measured 24.5°C 26/02/2020 19:45 97.4 μS/cm 26/02/2020 19:45 Not measured Full data
Weirs Steven's Weir Upstream Edward 4.5 m 26/02/2020 19:45 Not measured Not measured Not measured Not measured Not measured Not measured Full data
River Gauge Stoney Crossing Murray 1.35 m 26/02/2020 19:45 345 ML/Day 26/02/2020 19:45 Not measured 338.2 ML/d26/02/2020 7:45 24.5°C 26/02/2020 19:45 208.6 μS/cm 26/02/2020 19:45 Not measured Full data
River Gauge Swan Hill Murray 1.41 m 26/02/2020 19:45 7413 ML/Day 26/02/2020 19:45 Not measured Not measured 24.9°C 26/02/2020 19:45 84.5 μS/cm 26/02/2020 19:45 Not measured Full data
River Gauge Tallandoon Mitta 2.08 m 26/02/2020 19:45 2566 ML/Day 26/02/2020 19:45 Not measured Not measured 18.8°C 26/02/2020 19:45 38.6 μS/cm 26/02/2020 19:45 Not measured Full data
River Gauge Tauwitchere Barrage Murray 0.52 m 26/02/2020 18:45 Not measured Not measured Not measured Not measured Not measured Not measured Full data
River Gauge Tocumwal Murray 1.74 m 26/02/2020 19:45 6638 ML/Day 26/02/2020 19:45 Not measured Not measured 24.7°C 26/02/2020 19:45 43.3 μS/cm 26/02/2020 19:45 Not measured Full data
River Gauge Torrumbarry Headworks Murray 84.75 m 26/02/2020 19:45 Not measured Not measured 1215.9 ML/d26/02/2020 19:45 Not measured Not measured Not measured Full data
Weirs Torrumbarry Weir Downstream Murray 2.07 m 26/02/2020 19:45 5783 ML/Day 26/02/2020 19:45 Not measured Not measured 24.5°C 26/02/2020 19:45 60.1 μS/cm 26/02/2020 19:45 Not measured Full data
Weirs Torrumbarry Weir Upstream Murray 86.05 m 26/02/2020 19:30 Not measured 37 GL 26/02/2020 7:45 Not measured 59.8°C 26/02/2020 7:45 60.1 μS/cm 26/02/2020 17:45 0.0 mm 25/02/2020 9:00 Full data
River Gauge Wakool Canal Wakool 0.45 m 26/02/2020 19:45 Not measured Not measured 94.9 ML/d26/02/2020 8:45 Not measured Not measured Not measured Full data
River Gauge Wakool Junction Murray 3.24 m 26/02/2020 19:45 9183 ML/Day 26/02/2020 19:45 Not measured Not measured 24.9°C 26/02/2020 19:45 73.6 μS/cm 26/02/2020 19:45 Not measured Full data
River Gauge Weir 32 Upstream Darling 0.59 m 26/02/2020 19:45 1 ML/Day 26/02/2020 19:45 Not measured Not measured 26.7°C 5/02/2020 10:00 0.0 μS/cm 4/02/2020 17:45 Not measured Full data
Weirs Wentworth Weir Murray 27.62 m 26/02/2020 19:45 Not measured Not measured 6503.2 ML/d26/02/2020 8:45 Not measured 83.0 μS/cm 26/02/2020 7:45 0.0 mm 31/01/2019 9:00 Full data
River Gauge Wilcania Darling -0.26 m 26/02/2020 19:45 3 ML/Day 26/02/2020 19:45 Not measured Not measured 26.3°C 4/02/2020 9:45 0.0 μS/cm 4/02/2020 9:45 Not measured Full data
River Gauge Yarrawonga Main Channel Murray 123.26 m 26/02/2020 19:45 Not measured Not measured 600.0 ML/d26/02/2020 20:30 Not measured Not measured Not measured Full data
Weirs Yarrawonga Weir Downstream Murray 1.14 m 26/02/2020 20:00 6698 ML/Day 26/02/2020 20:00 Not measured Not measured 23.0°C 26/02/2020 20:00 58.5 μS/cm 26/02/2020 20:00 Not measured Full data
Weirs Yarrawonga Weir Upstream Murray 124.78 m 26/02/2020 19:45 Not measured Not measured Not measured Not measured Not measured 0.4 mm 26/02/2020 9:00 Full data